EGPN

Dundee Airport

Dundee, United Kingdom
TAF EGPN 251405Z 2515/2520 22012KT 9999 FEW030 TEMPO 2515/2520 24020G30KT PROB30 TEMPO 2516/2520 7000 -RADZ BKN010
Issued Valid From Valid To
Sep-25 @ 14:05 UTC
(3 hours ago)
Sep-25 @ 15:00 UTC
(2 hours ago)
Sep-25 @ 20:00 UTC
(in 3 hours)
Sep-25 @ 15:00 to Sep-25 @ 20:00
TAF EGPN 251405Z 2515/2520 22012KT 9999 FEW030
Wind Visibility Clouds
220° at 12 knots 10,000+ meters
  • Few at 3,000' AGL
Temporary Sep-25 @ 15:00 to Sep-25 @ 20:00
TEMPO 2515/2520 24020G30KT
Wind
240° at 20 knots
 Gusting to 30 knots
Temporary  (Probability 30%) Sep-25 @ 16:00 to Sep-25 @ 20:00
PROB30 TEMPO 2516/2520 7000 -RADZ BKN010
Visibility Clouds Conditions
7,001 meters
  • Broken at 1,000' AGL
  • Light Rain
  • Light Drizzle
TAF EGPN 251405Z 2515/2520 22012KT 9999 FEW030 TEMPO 2515/2520 24020G30KT PROB30 TEMPO 2516/2520 7000 -RADZ BKN010
Issued Sep-25 @ 14:05 UTC
(3 hours ago)
Valid From Sep-25 @ 15:00 UTC
(2 hours ago)
Valid To Sep-25 @ 20:00 UTC
(in 3 hours)
Sep-25 @ 15:00 - Sep-25 @ 20:00
Wind Visibility
220° at 12 knots 10,000+ meters
Clouds
  • Few at 3,000' AGL
Temporary Sep-25 @ 15:00 - Sep-25 @ 20:00
Wind
240° at 20 knots
 Gusting to 30 knots
Probability 30% Temporary Sep-25 @ 16:00 - Sep-25 @ 20:00
Clouds
  • Broken at 1,000' AGL
Conditions
  • Light Rain
  • Light Drizzle